createdAt,value
2022-08-28T00:00:01.667Z,57.195
2022-08-28T00:07:01.613Z,57.195
2022-08-28T00:14:02.346Z,57.317
2022-08-28T00:21:01.866Z,57.457
2022-08-28T00:28:03.375Z,57.457
2022-08-28T00:35:01.531Z,57.514
2022-08-28T00:42:01.407Z,57.514
2022-08-28T00:49:02.338Z,57.444
2022-08-28T00:56:02.203Z,57.444
2022-08-28T01:00:01.844Z,57.473
2022-08-28T01:07:02.207Z,57.473
2022-08-28T01:14:01.883Z,57.458
2022-08-28T01:21:01.616Z,57.458
2022-08-28T01:28:01.561Z,57.627
2022-08-28T01:35:02.433Z,57.627
2022-08-28T01:42:01.503Z,57.353
2022-08-28T01:49:02.010Z,57.353
2022-08-28T01:56:01.866Z,57.269
2022-08-28T02:00:01.991Z,57.269
2022-08-28T02:07:01.923Z,57.49
2022-08-28T02:14:01.642Z,57.49
2022-08-28T02:21:02.020Z,57.594
2022-08-28T02:28:02.212Z,57.594
2022-08-28T02:35:02.289Z,57.966
2022-08-28T02:42:01.457Z,58.207
2022-08-28T02:49:01.480Z,58.207
2022-08-28T02:56:01.619Z,58.578
2022-08-28T03:00:02.393Z,58.578
2022-08-28T03:07:01.838Z,58.578
2022-08-28T03:14:01.892Z,58.693
2022-08-28T03:21:01.625Z,58.952
2022-08-28T03:28:01.624Z,58.952
2022-08-28T03:35:01.627Z,59.186
2022-08-28T03:42:01.832Z,59.186
2022-08-28T03:49:01.886Z,59.294
2022-08-28T03:56:02.094Z,59.294
2022-08-28T04:00:01.687Z,59.36
2022-08-28T04:07:02.025Z,59.36
2022-08-28T04:14:01.400Z,59.464
2022-08-28T04:21:02.120Z,59.464
2022-08-28T04:28:01.446Z,59.695
2022-08-28T04:35:02.042Z,59.695
2022-08-28T04:42:01.616Z,59.807
2022-08-28T04:49:01.420Z,59.807
2022-08-28T04:56:01.956Z,60.071
2022-08-28T05:00:01.616Z,60.071
2022-08-28T05:07:01.512Z,60.274
2022-08-28T05:14:01.853Z,60.274
2022-08-28T05:21:02.216Z,60.445
2022-08-28T05:28:02.022Z,60.445
2022-08-28T05:35:01.586Z,60.532
2022-08-28T05:42:01.995Z,60.693
2022-08-28T05:49:03.951Z,60.693
2022-08-28T05:56:02.265Z,60.693
2022-08-28T06:00:01.808Z,60.693
2022-08-28T06:07:01.519Z,60.693
2022-08-28T06:14:02.573Z,60.782
2022-08-28T06:21:02.150Z,61.108
2022-08-28T06:28:01.344Z,61.108
2022-08-28T06:35:01.968Z,61.241
2022-08-28T06:42:02.248Z,61.241
2022-08-28T06:49:02.246Z,61.284
2022-08-28T06:56:02.309Z,61.284
2022-08-28T07:00:01.965Z,61.278
2022-08-28T07:07:02.033Z,61.278
2022-08-28T07:14:01.940Z,61.223
2022-08-28T07:21:01.730Z,61.223
2022-08-28T07:28:02.049Z,61.507
2022-08-28T07:35:01.804Z,61.507
2022-08-28T07:42:01.747Z,61.239
2022-08-28T07:49:01.393Z,61.239
2022-08-28T07:56:01.428Z,61.114
2022-08-28T08:00:01.999Z,61.114
2022-08-28T08:07:01.693Z,60.833
2022-08-28T08:14:02.097Z,60.833
2022-08-28T08:21:02.047Z,60.246
2022-08-28T08:28:01.422Z,60.246
2022-08-28T08:35:02.188Z,60.124
2022-08-28T08:42:02.008Z,59.908
2022-08-28T08:49:02.269Z,59.908
2022-08-28T08:56:01.586Z,59.194
2022-08-28T09:00:02.248Z,59.194
2022-08-28T09:07:01.531Z,59.194
2022-08-28T09:14:01.604Z,59.199
2022-08-28T09:21:01.994Z,58.852
2022-08-28T09:28:01.810Z,58.852
2022-08-28T09:35:01.600Z,58.975
2022-08-28T09:42:01.474Z,58.975
2022-08-28T09:49:01.917Z,57.968
2022-08-28T09:56:02.306Z,57.968
2022-08-28T10:00:01.912Z,57.539
2022-08-28T10:07:01.927Z,57.539
2022-08-28T10:14:02.097Z,56.895
2022-08-28T10:21:01.917Z,56.895
2022-08-28T10:28:01.769Z,56.328
2022-08-28T10:35:01.891Z,56.328
2022-08-28T10:42:01.659Z,55.992
2022-08-28T10:49:02.018Z,55.992
2022-08-28T10:56:02.318Z,55.166
2022-08-28T11:00:01.920Z,55.166
2022-08-28T11:07:01.461Z,54.979
2022-08-28T11:14:02.205Z,54.979
2022-08-28T11:21:01.988Z,54.309
2022-08-28T11:28:02.279Z,54.309
2022-08-28T11:35:01.849Z,53.998
2022-08-28T11:42:02.192Z,53.215
2022-08-28T11:49:01.971Z,53.215
2022-08-28T11:56:01.768Z,53.041
2022-08-28T12:00:02.380Z,53.041
2022-08-28T12:07:01.564Z,53.041
2022-08-28T12:14:01.530Z,52.677
2022-08-28T12:21:01.715Z,52.222
2022-08-28T12:28:02.297Z,52.222
2022-08-28T12:35:02.353Z,51.697
2022-08-28T12:42:01.947Z,51.697
2022-08-28T12:49:01.374Z,51.572
2022-08-28T12:56:02.184Z,51.572
2022-08-28T13:00:01.705Z,51.081
2022-08-28T13:07:01.591Z,51.081
2022-08-28T13:14:01.948Z,51.177
2022-08-28T13:21:02.261Z,51.177
2022-08-28T13:28:01.734Z,50.452
2022-08-28T13:35:02.336Z,50.452
2022-08-28T13:42:01.353Z,50.127
2022-08-28T13:49:01.407Z,50.127
2022-08-28T13:56:01.414Z,50.136
2022-08-28T14:00:02.014Z,50.136
2022-08-28T14:07:01.561Z,49.656
2022-08-28T14:14:01.821Z,49.656
2022-08-28T14:21:01.834Z,49.235
2022-08-28T14:28:01.572Z,49.235
2022-08-28T14:35:01.566Z,48.939
2022-08-28T14:42:02.470Z,48.549
2022-08-28T14:49:01.440Z,48.549
2022-08-28T14:56:01.968Z,48.058
2022-08-28T15:00:01.577Z,48.058
2022-08-28T15:07:02.159Z,48.058
2022-08-28T15:14:02.159Z,47.57
2022-08-28T15:21:01.542Z,47.014
2022-08-28T15:28:01.698Z,47.014
2022-08-28T15:35:01.872Z,46.942
2022-08-28T15:42:02.199Z,46.942
2022-08-28T15:49:02.149Z,47.182
2022-08-28T15:56:01.869Z,47.182
2022-08-28T16:00:02.487Z,47.012
2022-08-28T16:07:02.112Z,47.012
2022-08-28T16:14:02.022Z,46.769
2022-08-28T16:21:04.953Z,46.769
2022-08-28T16:28:01.508Z,46.441
2022-08-28T16:35:01.965Z,46.441
2022-08-28T16:42:01.680Z,46.243
2022-08-28T16:49:01.504Z,46.243
2022-08-28T16:56:01.635Z,46.176
2022-08-28T17:00:02.183Z,46.176
2022-08-28T17:07:01.387Z,46.053
2022-08-28T17:14:01.428Z,46.053
2022-08-28T17:21:01.874Z,46.01
2022-08-28T17:28:01.399Z,46.01
2022-08-28T17:35:02.437Z,45.939
2022-08-28T17:42:01.571Z,46.027
2022-08-28T17:49:01.395Z,46.027
2022-08-28T17:56:02.088Z,45.89
2022-08-28T18:00:02.220Z,45.89
2022-08-28T18:07:02.278Z,45.89
2022-08-28T18:14:02.034Z,46.124
2022-08-28T18:21:01.343Z,45.849
2022-08-28T18:28:01.751Z,45.849
2022-08-28T18:35:02.168Z,46.055
2022-08-28T18:42:02.298Z,46.055
2022-08-28T18:49:02.012Z,46.228
2022-08-28T18:56:02.012Z,46.228
2022-08-28T19:00:02.144Z,46.274
2022-08-28T19:07:01.796Z,46.274
2022-08-28T19:14:03.905Z,46.39
2022-08-28T19:21:02.230Z,46.39
2022-08-28T19:28:01.902Z,46.498
2022-08-28T19:35:01.573Z,46.498
2022-08-28T19:42:02.311Z,46.666
2022-08-28T19:49:01.858Z,46.666
2022-08-28T19:56:02.069Z,46.47
2022-08-28T20:00:01.599Z,46.47
2022-08-28T20:07:01.943Z,46.558
2022-08-28T20:14:02.038Z,46.558
2022-08-28T20:21:01.677Z,46.25
2022-08-28T20:28:12.009Z,46.25
2022-08-28T20:35:02.241Z,46.424
2022-08-28T20:42:01.419Z,46.424
2022-08-28T20:49:01.981Z,46.582
2022-08-28T20:56:02.132Z,46.713
2022-08-28T21:00:05.463Z,46.713
2022-08-28T21:07:01.642Z,46.713
2022-08-28T21:14:01.746Z,47.089
2022-08-28T21:21:01.836Z,47.582
2022-08-28T21:28:04.314Z,47.582
2022-08-28T21:35:02.203Z,48.33
2022-08-28T21:42:01.680Z,48.33
2022-08-28T21:49:02.022Z,49.148
2022-08-28T21:56:01.439Z,49.148
2022-08-28T22:00:02.277Z,49.828
2022-08-28T22:07:01.590Z,49.828
2022-08-28T22:14:01.483Z,50.385
2022-08-28T22:21:02.019Z,50.385
2022-08-28T22:28:01.732Z,50.867
2022-08-28T22:35:02.261Z,50.867
2022-08-28T22:42:01.864Z,51.185
2022-08-28T22:49:01.612Z,51.185
2022-08-28T22:56:01.906Z,51.548
2022-08-28T23:00:02.510Z,51.548
2022-08-28T23:07:02.083Z,51.86
2022-08-28T23:14:02.243Z,51.86
2022-08-28T23:21:02.037Z,52.189
2022-08-28T23:28:06.293Z,52.189
2022-08-28T23:35:02.581Z,52.347
2022-08-28T23:42:02.112Z,52.347
2022-08-28T23:49:01.375Z,52.64
2022-08-28T23:56:02.110Z,52.922
